Wetterdaten: Woche 26.06.17 - 02.07.17 (KW26)
Datum Zeit Temp. A. Feuchte A. Luftdruck Regen Wind Richtung Taupunkt Windchill Windben
26.06.2017 00:00 15,6 C 78 % 1014,4 hPa 0,0 l/m 0,0 km/h (0 Bft) O-NO 11,8 C 15,6 C 0,1 km/h (0 Bft)
26.06.2017 01:00 14,6 C 82 % 1014,2 hPa 0,0 l/m 0,0 km/h (0 Bft) O-NO 11,5 C 14,6 C 0,1 km/h (0 Bft)
26.06.2017 02:00 13,3 C 86 % 1014,3 hPa 0,0 l/m 0,0 km/h (0 Bft) O-NO 11,0 C 13,3 C 0,3 km/h (0 Bft)
26.06.2017 03:00 12,0 C 89 % 1014,1 hPa 0,0 l/m 0,0 km/h (0 Bft) O-NO 10,2 C 12,0 C 0,0 km/h (0 Bft)
26.06.2017 04:00 10,9 C 92 % 1013,7 hPa 0,0 l/m 0,0 km/h (0 Bft) O-NO 9,7 C 10,9 C 0,0 km/h (0 Bft)
26.06.2017 05:00 10,6 C 93 % 1013,4 hPa 0,0 l/m 0,0 km/h (0 Bft) O-NO 9,6 C 10,6 C 0,0 km/h (0 Bft)
26.06.2017 06:00 10,9 C 94 % 1013,4 hPa 0,0 l/m 0,0 km/h (0 Bft) O-NO 10,0 C 10,9 C 0,0 km/h (0 Bft)
26.06.2017 07:00 14,2 C 87 % 1013,5 hPa 0,0 l/m 0,0 km/h (0 Bft) O-NO 12,0 C 14,2 C 0,0 km/h (0 Bft)
26.06.2017 08:00 19,7 C 69 % 1013,0 hPa 0,0 l/m 1,7 km/h (1 Bft) O-NO 13,8 C 19,7 C 4,0 km/h (1 Bft)
26.06.2017 09:00 21,2 C 61 % 1012,5 hPa 0,0 l/m 3,1 km/h (1 Bft) O-NO 13,4 C 21,2 C 7,9 km/h (2 Bft)
26.06.2017 10:00 22,7 C 55 % 1012,4 hPa 0,0 l/m 3,8 km/h (1 Bft) O-NO 13,2 C 22,7 C 9,7 km/h (2 Bft)
26.06.2017 11:00 24,4 C 46 % 1012,1 hPa 0,0 l/m 3,7 km/h (1 Bft) O-NO 12,0 C 24,4 C 7,7 km/h (2 Bft)
26.06.2017 12:00 25,9 C 42 % 1011,7 hPa 0,0 l/m 3,7 km/h (1 Bft) NO 12,0 C 25,9 C 6,9 km/h (2 Bft)
26.06.2017 13:00 27,2 C 39 % 1011,0 hPa 0,0 l/m 3,8 km/h (1 Bft) O 12,0 C 27,2 C 7,6 km/h (2 Bft)
26.06.2017 14:00 28,7 C 35 % 1010,0 hPa 0,0 l/m 3,3 km/h (1 Bft) NO 11,9 C 28,7 C 8,6 km/h (2 Bft)
26.06.2017 15:00 29,8 C 32 % 1009,3 hPa 0,0 l/m 4,1 km/h (1 Bft) O-NO 11,2 C 29,8 C 10,1 km/h (2 Bft)
26.06.2017 16:00 30,5 C 29 % 1008,8 hPa 0,0 l/m 2,6 km/h (1 Bft) O-NO 10,4 C 30,5 C 7,4 km/h (2 Bft)
26.06.2017 17:00 30,5 C 30 % 1008,0 hPa 0,0 l/m 2,5 km/h (1 Bft) N-NO 10,7 C 30,5 C 6,1 km/h (2 Bft)
26.06.2017 18:00 30,0 C 31 % 1007,4 hPa 0,0 l/m 1,1 km/h (0 Bft) W-NW 11,1 C 30,0 C 4,4 km/h (1 Bft)
26.06.2017 19:00 28,2 C 41 % 1007,4 hPa 0,0 l/m 2,2 km/h (1 Bft) S 13,8 C 28,2 C 6,0 km/h (2 Bft)
26.06.2017 20:00 26,3 C 47 % 1007,7 hPa 0,0 l/m 2,1 km/h (1 Bft) W-NW 14,0 C 26,3 C 5,9 km/h (2 Bft)
26.06.2017 21:00 24,5 C 51 % 1008,1 hPa 0,0 l/m 0,7 km/h (0 Bft) NW 13,8 C 24,5 C 2,8 km/h (1 Bft)
26.06.2017 22:00 22,7 C 59 % 1009,0 hPa 0,0 l/m 1,3 km/h (1 Bft) O-NO 14,1 C 22,7 C 4,5 km/h (1 Bft)
26.06.2017 23:00 19,6 C 76 % 1010,0 hPa 0,5 l/m 1,4 km/h (1 Bft) S-SO 15,2 C 19,6 C 3,9 km/h (1 Bft)
27.06.2017 00:00 17,8 C 88 % 1010,0 hPa 0,3 l/m 0,6 km/h (0 Bft) S 15,7 C 17,8 C 2,0 km/h (1 Bft)
27.06.2017 01:00 16,9 C 92 % 1009,5 hPa 0,0 l/m 0,1 km/h (0 Bft) S 15,6 C 16,9 C 0,9 km/h (0 Bft)
27.06.2017 02:00 16,8 C 93 % 1009,3 hPa 0,0 l/m 0,5 km/h (0 Bft) O 15,7 C 16,8 C 2,1 km/h (1 Bft)
27.06.2017 03:00 16,9 C 93 % 1008,8 hPa 0,0 l/m 0,2 km/h (0 Bft) O 15,7 C 16,9 C 1,6 km/h (1 Bft)
27.06.2017 04:00 16,7 C 93 % 1008,4 hPa 0,8 l/m 0,3 km/h (0 Bft) O-NO 15,6 C 16,7 C 2,1 km/h (1 Bft)
27.06.2017 05:00 16,4 C 94 % 1007,9 hPa 0,0 l/m 0,2 km/h (0 Bft) O-NO 15,4 C 16,4 C 1,1 km/h (0 Bft)
27.06.2017 06:00 16,1 C 95 % 1007,8 hPa 0,0 l/m 0,4 km/h (0 Bft) S-SO 15,3 C 16,1 C 3,5 km/h (1 Bft)
27.06.2017 07:00 16,5 C 94 % 1007,4 hPa 0,0 l/m 0,7 km/h (0 Bft) S-SW 15,5 C 16,5 C 2,9 km/h (1 Bft)
27.06.2017 08:00 18,1 C 89 % 1007,2 hPa 0,0 l/m 1,2 km/h (1 Bft) S-SW 16,2 C 18,1 C 4,0 km/h (1 Bft)
27.06.2017 09:00 19,2 C 81 % 1007,0 hPa 0,3 l/m 2,5 km/h (1 Bft) O 15,9 C 19,2 C 6,8 km/h (2 Bft)
27.06.2017 10:00 20,0 C 79 % 1006,7 hPa 0,0 l/m 3,0 km/h (1 Bft) O-NO 16,2 C 20,0 C 9,1 km/h (2 Bft)
27.06.2017 11:00 21,6 C 71 % 1006,5 hPa 0,0 l/m 2,8 km/h (1 Bft) O-NO 16,2 C 21,6 C 6,3 km/h (2 Bft)
27.06.2017 12:00 22,5 C 68 % 1006,2 hPa 0,0 l/m 2,5 km/h (1 Bft) O-NO 16,3 C 22,5 C 5,4 km/h (2 Bft)
27.06.2017 13:00 24,4 C 61 % 1005,3 hPa 0,0 l/m 2,7 km/h (1 Bft) NO 16,4 C 24,4 C 7,0 km/h (2 Bft)
27.06.2017 14:00 24,8 C 57 % 1004,6 hPa 0,0 l/m 2,9 km/h (1 Bft) NO 15,8 C 24,8 C 8,0 km/h (2 Bft)
27.06.2017 15:00 25,8 C 55 % 1004,1 hPa 0,0 l/m 3,8 km/h (1 Bft) NO 16,0 C 25,8 C 9,7 km/h (2 Bft)
27.06.2017 16:00 25,3 C 57 % 1003,7 hPa 0,0 l/m 2,9 km/h (1 Bft) W 16,2 C 25,3 C 7,9 km/h (2 Bft)
27.06.2017 17:00 23,7 C 65 % 1003,2 hPa 0,0 l/m 2,2 km/h (1 Bft) W-NW 16,6 C 23,7 C 7,1 km/h (2 Bft)
27.06.2017 18:00 21,9 C 77 % 1002,9 hPa 6,1 l/m 1,0 km/h (0 Bft) S-SW 17,7 C 21,9 C 3,7 km/h (1 Bft)
27.06.2017 19:00 19,7 C 90 % 1002,5 hPa 1,3 l/m 0,5 km/h (0 Bft) W 18,1 C 19,7 C 2,0 km/h (1 Bft)
27.06.2017 20:00 19,2 C 92 % 1001,9 hPa 0,0 l/m 0,2 km/h (0 Bft) W 18,0 C 19,2 C 1,6 km/h (1 Bft)
27.06.2017 21:00 18,7 C 94 % 1001,7 hPa 0,0 l/m 0,1 km/h (0 Bft) W 17,8 C 18,7 C 1,2 km/h (1 Bft)
27.06.2017 22:00 17,9 C 95 % 1001,9 hPa 0,0 l/m 0,1 km/h (0 Bft) W 17,1 C 17,9 C 1,1 km/h (0 Bft)
27.06.2017 23:00 17,1 C 96 % 1001,3 hPa 0,0 l/m 0,0 km/h (0 Bft) W 16,4 C 17,1 C 0,9 km/h (0 Bft)
28.06.2017 00:00 16,7 C 96 % 1001,0 hPa 0,3 l/m 0,0 km/h (0 Bft) W 16,0 C 16,7 C 0,6 km/h (0 Bft)
28.06.2017 01:00 16,0 C 96 % 1000,8 hPa 0,0 l/m 0,1 km/h (0 Bft) W 15,4 C 16,0 C 1,1 km/h (0 Bft)
28.06.2017 02:00 16,5 C 97 % 1001,0 hPa 3,3 l/m 0,9 km/h (0 Bft) O-NO 16,0 C 16,5 C 3,2 km/h (1 Bft)
28.06.2017 03:00 16,7 C 96 % 1000,2 hPa 0,3 l/m 0,4 km/h (0 Bft) S-SW 16,1 C 16,7 C 2,1 km/h (1 Bft)
28.06.2017 04:00 16,5 C 96 % 1000,7 hPa 2,3 l/m 1,9 km/h (1 Bft) O-NO 15,9 C 16,5 C 4,8 km/h (1 Bft)
28.06.2017 05:00 16,3 C 96 % 1000,1 hPa 2,5 l/m 0,8 km/h (0 Bft) O-NO 15,7 C 16,3 C 3,6 km/h (1 Bft)
28.06.2017 06:00 15,9 C 95 % 999,5 hPa 2,0 l/m 1,5 km/h (1 Bft) O 15,0 C 15,9 C 4,7 km/h (1 Bft)
28.06.2017 07:00 15,7 C 94 % 999,4 hPa 0,3 l/m 3,4 km/h (1 Bft) O-NO 14,8 C 15,7 C 7,5 km/h (2 Bft)
28.06.2017 08:00 16,0 C 94 % 1000,1 hPa 0,0 l/m 3,8 km/h (1 Bft) O-NO 15,0 C 16,0 C 9,7 km/h (2 Bft)
28.06.2017 09:00 16,4 C 93 % 999,8 hPa 0,0 l/m 3,7 km/h (1 Bft) O-NO 15,3 C 16,4 C 9,1 km/h (2 Bft)
28.06.2017 10:00 17,1 C 87 % 999,9 hPa 0,0 l/m 5,7 km/h (2 Bft) NO 14,9 C 17,0 C 13,3 km/h (3 Bft)
28.06.2017 11:00 19,1 C 75 % 1000,0 hPa 0,0 l/m 8,0 km/h (2 Bft) NO 14,6 C 18,4 C 16,6 km/h (3 Bft)
28.06.2017 12:00 20,0 C 70 % 1000,0 hPa 0,0 l/m 6,6 km/h (2 Bft) N-NO 14,4 C 19,8 C 14,5 km/h (3 Bft)
28.06.2017 13:00 21,1 C 63 % 999,6 hPa 0,0 l/m 7,9 km/h (2 Bft) O 13,6 C 20,5 C 17,8 km/h (3 Bft)
28.06.2017 14:00 22,1 C 58 % 998,7 hPa 0,0 l/m 6,8 km/h (2 Bft) NO 13,6 C 21,9 C 17,0 km/h (3 Bft)
28.06.2017 15:00 23,1 C 54 % 997,9 hPa 0,0 l/m 6,4 km/h (2 Bft) NO 13,2 C 22,9 C 16,0 km/h (3 Bft)
28.06.2017 16:00 23,3 C 50 % 997,0 hPa 0,0 l/m 5,5 km/h (2 Bft) O 12,3 C 23,2 C 13,4 km/h (3 Bft)
28.06.2017 17:00 23,3 C 52 % 996,5 hPa 0,0 l/m 3,6 km/h (1 Bft) O-NO 12,8 C 23,3 C 9,4 km/h (2 Bft)
28.06.2017 18:00 22,3 C 56 % 996,0 hPa 0,0 l/m 2,8 km/h (1 Bft) NO 13,1 C 22,3 C 7,4 km/h (2 Bft)
28.06.2017 19:00 20,6 C 66 % 995,8 hPa 0,0 l/m 2,1 km/h (1 Bft) N 14,0 C 20,6 C 5,8 km/h (2 Bft)
28.06.2017 20:00 19,3 C 70 % 995,4 hPa 0,0 l/m 2,9 km/h (1 Bft) NO 13,7 C 19,3 C 6,5 km/h (2 Bft)
28.06.2017 21:00 18,6 C 74 % 995,9 hPa 0,0 l/m 0,4 km/h (0 Bft) N 13,8 C 18,6 C 2,0 km/h (1 Bft)
28.06.2017 22:00 17,5 C 74 % 996,5 hPa 0,0 l/m 5,3 km/h (1 Bft) NO 12,7 C 17,5 C 13,7 km/h (3 Bft)
28.06.2017 23:00 15,0 C 87 % 996,4 hPa 0,8 l/m 4,0 km/h (1 Bft) O-NO 12,9 C 15,0 C 8,6 km/h (2 Bft)
29.06.2017 00:00 14,3 C 91 % 996,2 hPa 0,5 l/m 4,0 km/h (1 Bft) O-NO 12,9 C 14,3 C 8,9 km/h (2 Bft)
29.06.2017 01:00 13,8 C 93 % 996,3 hPa 0,8 l/m 3,3 km/h (1 Bft) O-NO 12,6 C 13,8 C 7,5 km/h (2 Bft)
29.06.2017 02:00 13,5 C 94 % 996,2 hPa 1,3 l/m 4,3 km/h (1 Bft) NO 12,5 C 13,5 C 11,3 km/h (2 Bft)
29.06.2017 03:00 13,5 C 95 % 996,3 hPa 1,5 l/m 3,0 km/h (1 Bft) O-NO 12,7 C 13,5 C 8,2 km/h (2 Bft)
29.06.2017 04:00 13,4 C 95 % 996,6 hPa 0,5 l/m 3,6 km/h (1 Bft) NO 12,5 C 13,4 C 9,4 km/h (2 Bft)
29.06.2017 05:00 13,1 C 94 % 997,0 hPa 0,0 l/m 3,3 km/h (1 Bft) NO 12,2 C 13,1 C 9,4 km/h (2 Bft)
29.06.2017 06:00 13,0 C 95 % 997,0 hPa 0,5 l/m 3,0 km/h (1 Bft) O-NO 12,1 C 13,0 C 9,0 km/h (2 Bft)
29.06.2017 07:00 13,0 C 95 % 997,5 hPa 0,3 l/m 2,6 km/h (1 Bft) O-NO 12,2 C 13,0 C 6,8 km/h (2 Bft)
29.06.2017 08:00 13,4 C 93 % 998,0 hPa 0,0 l/m 3,6 km/h (1 Bft) NO 12,3 C 13,4 C 9,0 km/h (2 Bft)
29.06.2017 09:00 14,8 C 88 % 998,2 hPa 0,0 l/m 4,5 km/h (1 Bft) O-NO 12,8 C 14,8 C 11,7 km/h (2 Bft)
29.06.2017 10:00 15,9 C 82 % 998,4 hPa 0,0 l/m 5,4 km/h (2 Bft) NO 12,8 C 15,8 C 13,4 km/h (3 Bft)
29.06.2017 11:00 17,9 C 71 % 998,4 hPa 0,0 l/m 5,0 km/h (1 Bft) O-NO 12,5 C 17,8 C 11,3 km/h (2 Bft)
29.06.2017 12:00 19,2 C 65 % 998,3 hPa 0,0 l/m 5,7 km/h (2 Bft) O 12,3 C 19,0 C 12,7 km/h (3 Bft)
29.06.2017 13:00 17,7 C 64 % 999,1 hPa 0,3 l/m 7,9 km/h (2 Bft) O-NO 10,7 C 16,9 C 18,4 km/h (3 Bft)
29.06.2017 14:00 18,1 C 67 % 999,0 hPa 0,3 l/m 8,3 km/h (2 Bft) NO 11,9 C 17,3 C 19,3 km/h (3 Bft)
29.06.2017 15:00 17,7 C 68 % 999,3 hPa 0,0 l/m 8,8 km/h (2 Bft) NO 11,6 C 16,6 C 21,9 km/h (4 Bft)
29.06.2017 16:00 16,1 C 74 % 999,8 hPa 0,0 l/m 9,6 km/h (2 Bft) NO 11,4 C 14,5 C 22,7 km/h (4 Bft)
29.06.2017 17:00 17,3 C 70 % 1000,1 hPa 0,0 l/m 8,6 km/h (2 Bft) NO 11,8 C 16,2 C 19,7 km/h (3 Bft)
29.06.2017 18:00 16,8 C 71 % 1000,9 hPa 0,0 l/m 6,7 km/h (2 Bft) NO 11,5 C 16,6 C 15,6 km/h (3 Bft)
29.06.2017 19:00 16,3 C 69 % 1001,6 hPa 0,0 l/m 6,8 km/h (2 Bft) NO 10,6 C 15,9 C 16,9 km/h (3 Bft)
29.06.2017 20:00 15,7 C 70 % 1002,0 hPa 0,0 l/m 5,3 km/h (1 Bft) NO 10,2 C 15,7 C 12,5 km/h (2 Bft)
29.06.2017 21:00 13,7 C 81 % 1002,8 hPa 0,0 l/m 5,3 km/h (1 Bft) NO 10,6 C 13,6 C 13,8 km/h (3 Bft)
29.06.2017 22:00 12,4 C 83 % 1003,7 hPa 0,0 l/m 3,1 km/h (1 Bft) O 9,6 C 12,4 C 8,3 km/h (2 Bft)
29.06.2017 23:00 11,8 C 83 % 1004,4 hPa 0,0 l/m 0,9 km/h (0 Bft) N-NW 9,1 C 11,8 C 3,6 km/h (1 Bft)
30.06.2017 00:00 11,0 C 87 % 1004,7 hPa 0,0 l/m 0,3 km/h (0 Bft) N 9,0 C 11,0 C 1,1 km/h (1 Bft)
30.06.2017 01:00 11,6 C 88 % 1004,5 hPa 0,3 l/m 1,9 km/h (1 Bft) O-NO 9,8 C 11,7 C 4,4 km/h (1 Bft)
30.06.2017 02:00 11,8 C 86 % 1004,8 hPa 0,0 l/m 2,9 km/h (1 Bft) NO 9,5 C 11,7 C 5,7 km/h (2 Bft)
30.06.2017 03:00 12,4 C 83 % 1005,0 hPa 0,0 l/m 4,5 km/h (1 Bft) O-NO 9,5 C 12,2 C 8,4 km/h (2 Bft)
30.06.2017 04:00 11,8 C 88 % 1005,1 hPa 0,3 l/m 5,3 km/h (1 Bft) O-NO 9,8 C 11,6 C 9,7 km/h (2 Bft)
30.06.2017 05:00 11,7 C 86 % 1005,5 hPa 0,0 l/m 4,7 km/h (1 Bft) O-NO 9,5 C 11,6 C 8,8 km/h (2 Bft)
30.06.2017 06:00 11,9 C 83 % 1005,7 hPa 0,0 l/m 4,2 km/h (1 Bft) O-NO 9,1 C 11,8 C 8,2 km/h (2 Bft)
30.06.2017 07:00 12,5 C 80 % 1006,1 hPa 0,0 l/m 3,4 km/h (1 Bft) O-NO 9,2 C 12,5 C 7,3 km/h (2 Bft)
30.06.2017 08:00 14,2 C 73 % 1006,6 hPa 0,0 l/m 5,2 km/h (1 Bft) NO 9,5 C 14,0 C 14,1 km/h (3 Bft)
30.06.2017 09:00 15,6 C 67 % 1006,8 hPa 0,0 l/m 6,2 km/h (2 Bft) O-NO 9,4 C 15,3 C 15,6 km/h (3 Bft)
30.06.2017 10:00 16,6 C 59 % 1006,8 hPa 0,0 l/m 7,8 km/h (2 Bft) O 8,6 C 15,9 C 18,8 km/h (3 Bft)
30.06.2017 11:00 17,9 C 54 % 1006,9 hPa 0,3 l/m 8,9 km/h (2 Bft) NO 8,3 C 16,7 C 18,9 km/h (3 Bft)
30.06.2017 12:00 18,8 C 49 % 1006,9 hPa 0,0 l/m 9,1 km/h (2 Bft) NO 7,8 C 17,7 C 16,1 km/h (3 Bft)
30.06.2017 13:00 19,5 C 47 % 1006,6 hPa 0,0 l/m 7,1 km/h (2 Bft) NO 8,1 C 19,0 C 13,2 km/h (3 Bft)
30.06.2017 14:00 21,0 C 45 % 1006,2 hPa 0,0 l/m 5,9 km/h (2 Bft) O-NO 8,6 C 20,8 C 11,4 km/h (2 Bft)
30.06.2017 15:00 21,5 C 43 % 1006,0 hPa 0,0 l/m 7,3 km/h (2 Bft) NO 8,3 C 21,0 C 13,9 km/h (3 Bft)
30.06.2017 16:00 21,8 C 42 % 1005,8 hPa 0,0 l/m 6,4 km/h (2 Bft) O-NO 8,3 C 21,5 C 11,8 km/h (2 Bft)
30.06.2017 17:00 21,5 C 42 % 1005,6 hPa 0,0 l/m 6,3 km/h (2 Bft) O-NO 8,2 C 21,3 C 12,0 km/h (2 Bft)
30.06.2017 18:00 18,2 C 54 % 1006,2 hPa 0,0 l/m 6,0 km/h (2 Bft) O-NO 8,5 C 17,8 C 14,6 km/h (3 Bft)
30.06.2017 19:00 16,9 C 60 % 1006,5 hPa 0,0 l/m 4,5 km/h (1 Bft) O-NO 9,1 C 16,9 C 10,9 km/h (2 Bft)
30.06.2017 20:00 16,5 C 58 % 1007,0 hPa 0,0 l/m 3,9 km/h (1 Bft) O 8,3 C 16,5 C 11,0 km/h (2 Bft)
30.06.2017 21:00 15,3 C 63 % 1007,6 hPa 0,0 l/m 2,4 km/h (1 Bft) NO 8,4 C 15,3 C 6,1 km/h (2 Bft)
30.06.2017 22:00 14,0 C 69 % 1008,1 hPa 0,0 l/m 1,4 km/h (1 Bft) NO 8,5 C 14,0 C 4,4 km/h (1 Bft)
30.06.2017 23:00 13,5 C 72 % 1008,4 hPa 0,0 l/m 1,9 km/h (1 Bft) O-NO 8,5 C 13,5 C 4,9 km/h (1 Bft)
01.07.2017 00:00 13,2 C 74 % 1008,4 hPa 0,0 l/m 1,6 km/h (1 Bft) NO 8,6 C 13,2 C 4,8 km/h (1 Bft)
01.07.2017 01:00 12,5 C 79 % 1008,7 hPa 0,0 l/m 1,6 km/h (1 Bft) N-NO 8,9 C 12,5 C 5,6 km/h (2 Bft)
01.07.2017 02:00 12,6 C 81 % 1008,7 hPa 0,0 l/m 6,5 km/h (2 Bft) O 9,5 C 12,4 C 16,0 km/h (3 Bft)
01.07.2017 03:00 12,1 C 84 % 1009,0 hPa 0,0 l/m 6,5 km/h (2 Bft) O-NO 9,5 C 11,7 C 15,7 km/h (3 Bft)
01.07.2017 04:00 11,6 C 89 % 1009,3 hPa 0,0 l/m 5,4 km/h (1 Bft) NO 9,8 C 11,5 C 14,4 km/h (3 Bft)
01.07.2017 05:00 11,5 C 89 % 1009,7 hPa 0,3 l/m 5,3 km/h (1 Bft) O-NO 9,8 C 11,5 C 14,0 km/h (3 Bft)
01.07.2017 06:00 11,0 C 92 % 1010,1 hPa 0,8 l/m 5,8 km/h (2 Bft) O-NO 9,7 C 10,9 C 14,4 km/h (3 Bft)
01.07.2017 07:00 11,4 C 91 % 1010,5 hPa 0,0 l/m 6,5 km/h (2 Bft) O-NO 9,9 C 10,9 C 16,0 km/h (3 Bft)
01.07.2017 08:00 13,0 C 84 % 1010,8 hPa 0,0 l/m 7,7 km/h (2 Bft) O-NO 10,3 C 12,2 C 18,0 km/h (3 Bft)
01.07.2017 09:00 14,4 C 75 % 1011,2 hPa 0,0 l/m 8,8 km/h (2 Bft) NO 10,1 C 13,1 C 19,6 km/h (3 Bft)
01.07.2017 10:00 14,2 C 75 % 1011,6 hPa 0,0 l/m 7,8 km/h (2 Bft) N-NO 9,8 C 13,2 C 18,4 km/h (3 Bft)
01.07.2017 11:00 14,2 C 74 % 1011,9 hPa 0,0 l/m 6,6 km/h (2 Bft) NO 9,6 C 13,9 C 14,4 km/h (3 Bft)
01.07.2017 12:00 14,6 C 72 % 1012,0 hPa 0,0 l/m 7,0 km/h (2 Bft) NO 9,6 C 14,0 C 16,0 km/h (3 Bft)
01.07.2017 13:00 15,8 C 69 % 1012,2 hPa 0,0 l/m 6,6 km/h (2 Bft) O-NO 10,1 C 15,5 C 16,8 km/h (3 Bft)
01.07.2017 14:00 16,0 C 70 % 1012,5 hPa 0,0 l/m 6,1 km/h (2 Bft) O-NO 10,5 C 15,8 C 16,4 km/h (3 Bft)
01.07.2017 15:00 15,4 C 74 % 1013,0 hPa 0,0 l/m 6,4 km/h (2 Bft) O-NO 10,9 C 15,2 C 15,6 km/h (3 Bft)
01.07.2017 16:00 15,7 C 75 % 1013,3 hPa 0,0 l/m 6,2 km/h (2 Bft) O-NO 11,2 C 15,4 C 16,6 km/h (3 Bft)
01.07.2017 17:00 15,6 C 76 % 1013,6 hPa 0,0 l/m 7,1 km/h (2 Bft) O-NO 11,3 C 15,2 C 16,8 km/h (3 Bft)
01.07.2017 18:00 14,8 C 79 % 1013,8 hPa 0,0 l/m 6,5 km/h (2 Bft) O-NO 11,3 C 14,6 C 16,5 km/h (3 Bft)
01.07.2017 19:00 14,2 C 81 % 1014,0 hPa 0,0 l/m 4,5 km/h (1 Bft) NO 10,9 C 14,1 C 12,1 km/h (2 Bft)
01.07.2017 20:00 13,7 C 85 % 1014,4 hPa 0,0 l/m 6,9 km/h (2 Bft) NO 11,1 C 13,1 C 18,2 km/h (3 Bft)
01.07.2017 21:00 12,7 C 90 % 1014,7 hPa 0,3 l/m 4,2 km/h (1 Bft) O-NO 11,2 C 12,7 C 12,1 km/h (2 Bft)
01.07.2017 22:00 12,5 C 93 % 1015,4 hPa 0,8 l/m 3,1 km/h (1 Bft) O-NO 11,3 C 12,5 C 8,4 km/h (2 Bft)
01.07.2017 23:00 12,2 C 94 % 1015,9 hPa 0,5 l/m 3,0 km/h (1 Bft) O-NO 11,2 C 12,2 C 7,2 km/h (2 Bft)
02.07.2017 00:00 12,1 C 94 % 1016,1 hPa 0,5 l/m 3,1 km/h (1 Bft) O-NO 11,2 C 12,1 C 7,4 km/h (2 Bft)
02.07.2017 01:00 12,0 C 95 % 1016,2 hPa 0,5 l/m 3,2 km/h (1 Bft) O-NO 11,2 C 12,0 C 8,4 km/h (2 Bft)
02.07.2017 02:00 11,9 C 95 % 1016,3 hPa 0,5 l/m 2,6 km/h (1 Bft) NO 11,2 C 11,9 C 7,1 km/h (2 Bft)
02.07.2017 03:00 11,8 C 96 % 1016,3 hPa 1,0 l/m 2,6 km/h (1 Bft) O-NO 11,2 C 11,8 C 7,9 km/h (2 Bft)
02.07.2017 04:00 11,9 C 96 % 1016,4 hPa 0,0 l/m 2,0 km/h (1 Bft) O-NO 11,3 C 11,9 C 6,2 km/h (2 Bft)
02.07.2017 05:00 12,0 C 96 % 1016,8 hPa 0,3 l/m 2,2 km/h (1 Bft) O-NO 11,4 C 12,0 C 6,4 km/h (2 Bft)
02.07.2017 06:00 12,2 C 96 % 1017,4 hPa 0,0 l/m 1,5 km/h (1 Bft) O 11,6 C 12,2 C 5,2 km/h (1 Bft)
02.07.2017 07:00 12,7 C 96 % 1018,0 hPa 0,3 l/m 1,5 km/h (1 Bft) O-NO 12,0 C 12,7 C 4,7 km/h (1 Bft)
02.07.2017 08:00 13,1 C 95 % 1018,6 hPa 0,0 l/m 1,4 km/h (1 Bft) O-NO 12,4 C 13,1 C 4,3 km/h (1 Bft)
02.07.2017 09:00 13,4 C 95 % 1019,2 hPa 0,0 l/m 1,1 km/h (0 Bft) O 12,7 C 13,4 C 3,5 km/h (1 Bft)
02.07.2017 10:00 13,7 C 95 % 1019,5 hPa 0,0 l/m 2,2 km/h (1 Bft) O-NO 13,0 C 13,7 C 5,7 km/h (2 Bft)
02.07.2017 11:00 14,3 C 93 % 1020,0 hPa 0,0 l/m 2,7 km/h (1 Bft) O 13,2 C 14,3 C 5,7 km/h (2 Bft)
02.07.2017 12:00 15,0 C 90 % 1020,0 hPa 0,0 l/m 4,5 km/h (1 Bft) O 13,4 C 15,0 C 10,5 km/h (2 Bft)
02.07.2017 13:00 16,5 C 79 % 1020,4 hPa 0,0 l/m 6,8 km/h (2 Bft) O 12,7 C 16,1 C 17,3 km/h (3 Bft)
02.07.2017 14:00 16,4 C 77 % 1020,5 hPa 0,0 l/m 2,6 km/h (1 Bft) O-NO 12,4 C 16,4 C 7,8 km/h (2 Bft)
02.07.2017 15:00 15,9 C 81 % 1020,5 hPa 0,0 l/m 3,8 km/h (1 Bft) O-NO 12,6 C 15,9 C 9,4 km/h (2 Bft)
02.07.2017 16:00 16,5 C 79 % 1020,6 hPa 0,0 l/m 4,6 km/h (1 Bft) O-NO 12,8 C 16,5 C 13,0 km/h (3 Bft)
02.07.2017 17:00 15,3 C 83 % 1020,8 hPa 0,0 l/m 4,1 km/h (1 Bft) O-NO 12,5 C 15,3 C 11,3 km/h (2 Bft)
02.07.2017 18:00 14,8 C 84 % 1020,9 hPa 0,0 l/m 3,7 km/h (1 Bft) O 12,1 C 14,8 C 10,3 km/h (2 Bft)
02.07.2017 19:00 14,7 C 85 % 1021,0 hPa 0,0 l/m 3,6 km/h (1 Bft) O-NO 12,2 C 14,7 C 10,5 km/h (2 Bft)
02.07.2017 20:00 14,6 C 84 % 1021,2 hPa 0,0 l/m 4,0 km/h (1 Bft) O 11,9 C 14,6 C 11,6 km/h (2 Bft)
02.07.2017 21:00 13,9 C 89 % 1021,6 hPa 0,0 l/m 2,5 km/h (1 Bft) O 12,1 C 13,9 C 7,1 km/h (2 Bft)
02.07.2017 22:00 13,2 C 94 % 1022,0 hPa 0,3 l/m 1,7 km/h (1 Bft) O 12,1 C 13,2 C 6,4 km/h (2 Bft)
02.07.2017 23:00 12,8 C 95 % 1022,2 hPa 0,3 l/m 1,2 km/h (1 Bft) O 12,0 C 12,8 C 3,5 km/h (1 Bft)
Min-Datum _ 26.06.17 26.06.17 28.06.17 - 02.07.17 - 30.06.17 30.06.17 02.07.17
_ Min-Zeit 06:00 16:45 20:15 - 23:56 - 18:20 04:49 23:56
Minimum _ 10,5 C 26 % 995,3 hPa - 0,0 km/h (0 Bft) - 6,2 C 9,5 C 0,0 km/h (0 Bft)
Max-Datum _ 26.06.17 28.06.17 02.07.17 27.06.17 30.06.17 - 27.06.17 26.06.17 29.06.17
_ Max-Zeit 17:50 05:00 23:25 18:45 12:02 - 18:45 17:50 13:25
Maximum _ 30,9 C 97 % 1022,3 hPa 6,1 l/m 16,1 km/h
NO (3 Bft)
- 18,6 C 30,9 C 33,8 km/h
NO (5 Bft)
Durchschnitt _ 16,8 C 77 % 1007,4 hPa #33,5 l/m 3,6 km/h (1 Bft) O-NO 12,2 C 16,7 C 8,9 km/h (2 Bft)